sensor_id;sensor_type;location;lat;lon;timestamp;pressure;altitude;pressure_sealevel;temperature;humidity
56142;BME280;42018;48.588;10.836;2022-09-09T00:00:15;96621.28;;;14.85;71.88
56142;BME280;42018;48.588;10.836;2022-09-09T00:03:21;96615.94;;;14.85;71.60
56142;BME280;42018;48.588;10.836;2022-09-09T00:10:15;96621.69;;;14.46;73.23
56142;BME280;42018;48.588;10.836;2022-09-09T00:13:34;96612.91;;;14.46;73.21
56142;BME280;42018;48.588;10.836;2022-09-09T00:16:27;96615.34;;;14.42;72.38
56142;BME280;42018;48.588;10.836;2022-09-09T00:19:24;96611.78;;;14.66;72.30
56142;BME280;42018;48.588;10.836;2022-09-09T00:28:23;96600.53;;;14.96;70.60
56142;BME280;42018;48.588;10.836;2022-09-09T00:31:18;96608.13;;;14.75;70.38
56142;BME280;42018;48.588;10.836;2022-09-09T00:34:24;96599.13;;;14.71;71.75
56142;BME280;42018;48.588;10.836;2022-09-09T00:37:11;96615.66;;;14.73;72.38
56142;BME280;42018;48.588;10.836;2022-09-09T00:39:59;96608.03;;;14.67;72.16
56142;BME280;42018;48.588;10.836;2022-09-09T00:42:46;96612.19;;;14.73;72.04
56142;BME280;42018;48.588;10.836;2022-09-09T00:54:52;96604.00;;;14.69;71.85
56142;BME280;42018;48.588;10.836;2022-09-09T00:57:42;96605.38;;;14.80;71.42
56142;BME280;42018;48.588;10.836;2022-09-09T01:00:50;96609.81;;;14.38;71.67
56142;BME280;42018;48.588;10.836;2022-09-09T01:03:38;96611.16;;;14.55;71.94
56142;BME280;42018;48.588;10.836;2022-09-09T01:06:35;96613.97;;;14.45;72.57
56142;BME280;42018;48.588;10.836;2022-09-09T01:18:13;96605.38;;;14.34;72.81
56142;BME280;42018;48.588;10.836;2022-09-09T01:21:04;96598.97;;;14.49;73.50
56142;BME280;42018;48.588;10.836;2022-09-09T01:26:59;96611.34;;;14.26;73.60
56142;BME280;42018;48.588;10.836;2022-09-09T01:29:46;96606.53;;;14.28;73.58
56142;BME280;42018;48.588;10.836;2022-09-09T01:38:31;96592.34;;;14.46;72.50
56142;BME280;42018;48.588;10.836;2022-09-09T01:41:18;96587.47;;;14.53;72.51
56142;BME280;42018;48.588;10.836;2022-09-09T01:44:03;96584.41;;;14.60;71.96
56142;BME280;42018;48.588;10.836;2022-09-09T01:46:50;96584.59;;;14.50;71.57
56142;BME280;42018;48.588;10.836;2022-09-09T01:49:35;96587.88;;;14.60;71.35
56142;BME280;42018;48.588;10.836;2022-09-09T01:52:20;96587.06;;;14.60;70.69
56142;BME280;42018;48.588;10.836;2022-09-09T01:55:07;96581.38;;;14.34;71.96
56142;BME280;42018;48.588;10.836;2022-09-09T01:58:24;96597.34;;;14.20;72.33
56142;BME280;42018;48.588;10.836;2022-09-09T02:01:35;96597.28;;;14.39;70.83
56142;BME280;42018;48.588;10.836;2022-09-09T02:04:36;96596.81;;;14.51;71.08
56142;BME280;42018;48.588;10.836;2022-09-09T02:07:34;96593.25;;;14.42;71.45
56142;BME280;42018;48.588;10.836;2022-09-09T02:13:13;96591.41;;;14.56;70.83
56142;BME280;42018;48.588;10.836;2022-09-09T02:16:33;96592.22;;;14.56;69.86
56142;BME280;42018;48.588;10.836;2022-09-09T02:19:27;96594.66;;;14.53;70.47
56142;BME280;42018;48.588;10.836;2022-09-09T02:22:18;96590.72;;;14.50;70.53
56142;BME280;42018;48.588;10.836;2022-09-09T02:25:07;96583.94;;;14.39;71.20
56142;BME280;42018;48.588;10.836;2022-09-09T02:27:53;96578.91;;;14.37;71.43
56142;BME280;42018;48.588;10.836;2022-09-09T02:30:40;96577.81;;;14.38;71.08
56142;BME280;42018;48.588;10.836;2022-09-09T02:33:28;96577.41;;;14.31;71.64
56142;BME280;42018;48.588;10.836;2022-09-09T02:36:16;96570.41;;;14.35;71.83
56142;BME280;42018;48.588;10.836;2022-09-09T02:39:03;96567.22;;;14.52;71.41
56142;BME280;42018;48.588;10.836;2022-09-09T02:41:50;96576.31;;;14.65;70.75
56142;BME280;42018;48.588;10.836;2022-09-09T02:44:36;96565.75;;;14.60;70.45
56142;BME280;42018;48.588;10.836;2022-09-09T02:47:34;96563.09;;;14.60;70.45
56142;BME280;42018;48.588;10.836;2022-09-09T02:50:25;96553.91;;;14.66;69.39
56142;BME280;42018;48.588;10.836;2022-09-09T02:53:17;96557.03;;;14.54;69.93
56142;BME280;42018;48.588;10.836;2022-09-09T02:56:07;96562.72;;;14.48;69.97
56142;BME280;42018;48.588;10.836;2022-09-09T02:58:54;96565.03;;;14.54;70.15
56142;BME280;42018;48.588;10.836;2022-09-09T03:01:39;96559.34;;;14.28;69.96
56142;BME280;42018;48.588;10.836;2022-09-09T03:04:25;96557.22;;;14.11;70.36
56142;BME280;42018;48.588;10.836;2022-09-09T03:07:11;96567.81;;;14.17;70.70
56142;BME280;42018;48.588;10.836;2022-09-09T03:09:57;96565.94;;;14.17;70.56
56142;BME280;42018;48.588;10.836;2022-09-09T03:12:43;96562.94;;;14.05;70.79
56142;BME280;42018;48.588;10.836;2022-09-09T03:15:28;96574.91;;;13.88;70.97
56142;BME280;42018;48.588;10.836;2022-09-09T03:18:15;96573.91;;;13.84;70.77
56142;BME280;42018;48.588;10.836;2022-09-09T03:21:01;96583.19;;;14.06;70.68
56142;BME280;42018;48.588;10.836;2022-09-09T03:23:46;96583.44;;;14.23;70.28
56142;BME280;42018;48.588;10.836;2022-09-09T03:26:32;96590.03;;;14.26;70.05
56142;BME280;42018;48.588;10.836;2022-09-09T03:29:18;96587.63;;;14.10;70.39
56142;BME280;42018;48.588;10.836;2022-09-09T03:32:03;96586.16;;;14.18;70.22
56142;BME280;42018;48.588;10.836;2022-09-09T03:34:49;96584.84;;;14.02;71.24
56142;BME280;42018;48.588;10.836;2022-09-09T03:37:37;96587.00;;;14.00;71.42
56142;BME280;42018;48.588;10.836;2022-09-09T03:40:24;96586.63;;;14.06;71.56
56142;BME280;42018;48.588;10.836;2022-09-09T03:43:09;96582.72;;;14.18;70.99
56142;BME280;42018;48.588;10.836;2022-09-09T03:45:55;96582.53;;;13.95;71.77
56142;BME280;42018;48.588;10.836;2022-09-09T03:48:43;96577.81;;;13.73;73.18
56142;BME280;42018;48.588;10.836;2022-09-09T03:51:29;96586.34;;;13.89;72.99
56142;BME280;42018;48.588;10.836;2022-09-09T03:54:14;96581.50;;;14.10;71.79
56142;BME280;42018;48.588;10.836;2022-09-09T03:56:59;96583.19;;;14.06;72.15
56142;BME280;42018;48.588;10.836;2022-09-09T03:59:45;96578.50;;;13.98;72.43
56142;BME280;42018;48.588;10.836;2022-09-09T04:02:30;96578.16;;;13.85;73.45
56142;BME280;42018;48.588;10.836;2022-09-09T04:05:15;96577.13;;;14.00;72.67
56142;BME280;42018;48.588;10.836;2022-09-09T04:08:01;96577.19;;;14.14;72.05
56142;BME280;42018;48.588;10.836;2022-09-09T04:10:49;96570.75;;;14.15;71.53
56142;BME280;42018;48.588;10.836;2022-09-09T04:13:36;96573.22;;;14.11;71.44
56142;BME280;42018;48.588;10.836;2022-09-09T04:16:25;96576.94;;;13.78;72.54
56142;BME280;42018;48.588;10.836;2022-09-09T04:19:12;96566.69;;;14.04;71.80
56142;BME280;42018;48.588;10.836;2022-09-09T04:21:58;96571.84;;;14.14;71.29
56142;BME280;42018;48.588;10.836;2022-09-09T04:24:44;96558.75;;;14.31;70.72
56142;BME280;42018;48.588;10.836;2022-09-09T04:27:29;96564.91;;;14.46;70.23
56142;BME280;42018;48.588;10.836;2022-09-09T04:30:15;96565.09;;;14.35;70.88
56142;BME280;42018;48.588;10.836;2022-09-09T04:33:01;96571.41;;;14.40;70.76
56142;BME280;42018;48.588;10.836;2022-09-09T04:35:48;96577.38;;;14.50;70.28
56142;BME280;42018;48.588;10.836;2022-09-09T04:38:34;96580.41;;;14.44;70.57
56142;BME280;42018;48.588;10.836;2022-09-09T04:41:20;96567.75;;;14.35;70.73
56142;BME280;42018;48.588;10.836;2022-09-09T04:44:06;96567.16;;;14.38;70.65
56142;BME280;42018;48.588;10.836;2022-09-09T04:46:51;96572.13;;;14.45;70.34
56142;BME280;42018;48.588;10.836;2022-09-09T04:49:37;96572.97;;;14.41;70.82
56142;BME280;42018;48.588;10.836;2022-09-09T04:52:23;96570.31;;;14.41;70.61
56142;BME280;42018;48.588;10.836;2022-09-09T04:55:08;96571.34;;;14.45;70.72
56142;BME280;42018;48.588;10.836;2022-09-09T04:57:54;96572.91;;;14.46;70.37
56142;BME280;42018;48.588;10.836;2022-09-09T05:00:40;96573.03;;;14.54;70.49
56142;BME280;42018;48.588;10.836;2022-09-09T05:03:26;96584.28;;;14.51;70.52
56142;BME280;42018;48.588;10.836;2022-09-09T05:06:14;96588.81;;;14.51;70.83
56142;BME280;42018;48.588;10.836;2022-09-09T05:09:00;96600.66;;;14.45;71.54
56142;BME280;42018;48.588;10.836;2022-09-09T05:11:46;96601.69;;;14.30;72.54
56142;BME280;42018;48.588;10.836;2022-09-09T05:14:31;96609.81;;;14.38;72.44
56142;BME280;42018;48.588;10.836;2022-09-09T05:17:17;96604.47;;;14.38;72.88
56142;BME280;42018;48.588;10.836;2022-09-09T05:20:03;96601.13;;;14.47;72.41
56142;BME280;42018;48.588;10.836;2022-09-09T05:22:53;96599.81;;;14.63;71.60
56142;BME280;42018;48.588;10.836;2022-09-09T05:25:40;96593.31;;;14.83;70.97
56142;BME280;42018;48.588;10.836;2022-09-09T05:28:26;96613.47;;;14.75;71.60
56142;BME280;42018;48.588;10.836;2022-09-09T05:31:13;96624.03;;;14.34;73.98
56142;BME280;42018;48.588;10.836;2022-09-09T05:33:59;96634.22;;;14.13;75.50
56142;BME280;42018;48.588;10.836;2022-09-09T05:36:44;96635.44;;;14.21;75.59
56142;BME280;42018;48.588;10.836;2022-09-09T05:39:30;96627.06;;;14.60;73.44
56142;BME280;42018;48.588;10.836;2022-09-09T05:42:15;96631.34;;;14.75;72.71
56142;BME280;42018;48.588;10.836;2022-09-09T05:45:00;96635.16;;;14.69;73.46
56142;BME280;42018;48.588;10.836;2022-09-09T05:47:51;96652.41;;;14.25;76.16
56142;BME280;42018;48.588;10.836;2022-09-09T05:50:38;96645.75;;;13.89;79.02
56142;BME280;42018;48.588;10.836;2022-09-09T05:53:24;96645.69;;;13.95;79.03
56142;BME280;42018;48.588;10.836;2022-09-09T05:56:15;96638.19;;;13.97;79.41
56142;BME280;42018;48.588;10.836;2022-09-09T05:59:00;96629.63;;;14.32;77.87
56142;BME280;42018;48.588;10.836;2022-09-09T06:01:46;96632.47;;;14.55;77.32
56142;BME280;42018;48.588;10.836;2022-09-09T06:04:31;96639.44;;;14.70;75.99
56142;BME280;42018;48.588;10.836;2022-09-09T06:07:17;96638.47;;;14.93;74.43
56142;BME280;42018;48.588;10.836;2022-09-09T06:10:03;96634.44;;;14.96;75.19
56142;BME280;42018;48.588;10.836;2022-09-09T06:12:48;96642.94;;;14.98;76.34
56142;BME280;42018;48.588;10.836;2022-09-09T06:15:34;96632.72;;;14.72;77.73
56142;BME280;42018;48.588;10.836;2022-09-09T06:18:19;96616.84;;;14.95;76.82
56142;BME280;42018;48.588;10.836;2022-09-09T06:21:08;96629.16;;;14.44;78.93
56142;BME280;42018;48.588;10.836;2022-09-09T06:23:54;96628.78;;;14.70;77.37
56142;BME280;42018;48.588;10.836;2022-09-09T06:26:40;96634.34;;;14.87;76.94
56142;BME280;42018;48.588;10.836;2022-09-09T06:29:26;96631.66;;;15.01;76.76
56142;BME280;42018;48.588;10.836;2022-09-09T06:32:11;96635.72;;;14.98;76.40
56142;BME280;42018;48.588;10.836;2022-09-09T06:34:56;96627.72;;;14.98;76.78
56142;BME280;42018;48.588;10.836;2022-09-09T06:37:45;96637.00;;;15.01;76.83
56142;BME280;42018;48.588;10.836;2022-09-09T06:40:33;96619.00;;;15.06;76.84
56142;BME280;42018;48.588;10.836;2022-09-09T06:43:19;96626.03;;;15.16;75.66
56142;BME280;42018;48.588;10.836;2022-09-09T06:46:15;96631.53;;;14.78;77.21
56142;BME280;42018;48.588;10.836;2022-09-09T06:49:01;96631.88;;;14.91;77.69
56142;BME280;42018;48.588;10.836;2022-09-09T06:51:47;96624.88;;;14.62;79.43
56142;BME280;42018;48.588;10.836;2022-09-09T06:54:32;96630.72;;;14.64;79.23
56142;BME280;42018;48.588;10.836;2022-09-09T06:57:18;96628.88;;;14.78;79.00
56142;BME280;42018;48.588;10.836;2022-09-09T07:00:04;96634.53;;;14.91;78.29
56142;BME280;42018;48.588;10.836;2022-09-09T07:02:50;96625.44;;;14.92;78.12
56142;BME280;42018;48.588;10.836;2022-09-09T07:05:36;96626.03;;;15.16;76.58
56142;BME280;42018;48.588;10.836;2022-09-09T07:08:23;96618.22;;;15.33;76.28
56142;BME280;42018;48.588;10.836;2022-09-09T07:11:09;96616.34;;;15.20;77.08
56142;BME280;42018;48.588;10.836;2022-09-09T07:13:59;96626.72;;;15.08;77.90
56142;BME280;42018;48.588;10.836;2022-09-09T07:16:46;96636.13;;;15.05;78.90
56142;BME280;42018;48.588;10.836;2022-09-09T07:19:31;96634.63;;;15.13;78.87
56142;BME280;42018;48.588;10.836;2022-09-09T07:22:16;96636.91;;;15.20;79.03
56142;BME280;42018;48.588;10.836;2022-09-09T07:25:03;96651.22;;;15.38;78.00
56142;BME280;42018;48.588;10.836;2022-09-09T07:27:48;96654.97;;;15.37;78.71
56142;BME280;42018;48.588;10.836;2022-09-09T07:30:34;96653.91;;;15.51;77.97
56142;BME280;42018;48.588;10.836;2022-09-09T07:33:19;96648.44;;;15.56;77.48
56142;BME280;42018;48.588;10.836;2022-09-09T07:36:07;96656.66;;;15.74;76.98
56142;BME280;42018;48.588;10.836;2022-09-09T07:38:56;96659.53;;;15.50;77.81
56142;BME280;42018;48.588;10.836;2022-09-09T07:41:46;96665.38;;;15.24;80.23
56142;BME280;42018;48.588;10.836;2022-09-09T07:44:32;96674.94;;;15.25;80.93
56142;BME280;42018;48.588;10.836;2022-09-09T07:47:20;96662.69;;;15.52;79.45
56142;BME280;42018;48.588;10.836;2022-09-09T07:50:05;96669.88;;;15.65;78.75
56142;BME280;42018;48.588;10.836;2022-09-09T07:52:52;96680.69;;;15.46;79.74
56142;BME280;42018;48.588;10.836;2022-09-09T07:55:38;96677.81;;;15.70;78.55
56142;BME280;42018;48.588;10.836;2022-09-09T07:58:24;96677.13;;;15.78;78.55
56142;BME280;42018;48.588;10.836;2022-09-09T08:01:11;96664.84;;;15.77;78.19
56142;BME280;42018;48.588;10.836;2022-09-09T08:04:03;96669.59;;;15.80;78.79
56142;BME280;42018;48.588;10.836;2022-09-09T08:06:51;96672.84;;;15.91;78.27
56142;BME280;42018;48.588;10.836;2022-09-09T08:09:37;96672.69;;;16.10;77.09
56142;BME280;42018;48.588;10.836;2022-09-09T08:12:23;96673.84;;;16.18;77.11
56142;BME280;42018;48.588;10.836;2022-09-09T08:15:08;96669.59;;;16.17;77.29
56142;BME280;42018;48.588;10.836;2022-09-09T08:17:54;96671.16;;;16.18;76.99
56142;BME280;42018;48.588;10.836;2022-09-09T08:20:40;96672.81;;;16.27;77.71
56142;BME280;42018;48.588;10.836;2022-09-09T08:23:27;96672.25;;;16.39;77.77
56142;BME280;42018;48.588;10.836;2022-09-09T08:26:15;96675.13;;;16.43;77.92
56142;BME280;42018;48.588;10.836;2022-09-09T08:29:03;96669.47;;;16.44;77.58
56142;BME280;42018;48.588;10.836;2022-09-09T08:31:53;96684.28;;;16.50;77.59
56142;BME280;42018;48.588;10.836;2022-09-09T08:34:42;96681.09;;;16.62;77.95
56142;BME280;42018;48.588;10.836;2022-09-09T08:37:27;96676.69;;;16.89;76.88
56142;BME280;42018;48.588;10.836;2022-09-09T08:40:25;96677.66;;;16.93;76.04
56142;BME280;42018;48.588;10.836;2022-09-09T08:43:14;96671.59;;;16.79;76.27
56142;BME280;42018;48.588;10.836;2022-09-09T08:46:08;96663.56;;;17.10;77.60
56142;BME280;42018;48.588;10.836;2022-09-09T08:49:01;96663.03;;;17.39;74.88
56142;BME280;42018;48.588;10.836;2022-09-09T08:51:51;96658.09;;;17.72;74.93
56142;BME280;42018;48.588;10.836;2022-09-09T08:54:40;96666.91;;;17.73;73.79
56142;BME280;42018;48.588;10.836;2022-09-09T08:57:27;96657.31;;;17.89;74.19
56142;BME280;42018;48.588;10.836;2022-09-09T09:00:13;96656.09;;;18.04;72.12
56142;BME280;42018;48.588;10.836;2022-09-09T09:12:41;96665.19;;;18.63;71.88
56142;BME280;42018;48.588;10.836;2022-09-09T09:15:36;96654.44;;;18.89;71.43
56142;BME280;42018;48.588;10.836;2022-09-09T09:18:22;96655.31;;;19.02;68.94
56142;BME280;42018;48.588;10.836;2022-09-09T09:21:23;96652.19;;;18.92;70.08
56142;BME280;42018;48.588;10.836;2022-09-09T09:24:18;96660.97;;;19.18;69.89
56142;BME280;42018;48.588;10.836;2022-09-09T09:27:13;96651.91;;;19.23;68.21
56142;BME280;42018;48.588;10.836;2022-09-09T09:30:01;96658.56;;;19.17;68.84
56142;BME280;42018;48.588;10.836;2022-09-09T09:33:00;96662.50;;;18.81;70.23
56142;BME280;42018;48.588;10.836;2022-09-09T09:35:49;96662.22;;;19.50;68.15
56142;BME280;42018;48.588;10.836;2022-09-09T09:38:36;96660.97;;;19.77;66.94
56142;BME280;42018;48.588;10.836;2022-09-09T09:41:36;96660.75;;;19.53;68.95
56142;BME280;42018;48.588;10.836;2022-09-09T09:44:28;96657.84;;;19.75;65.73
56142;BME280;42018;48.588;10.836;2022-09-09T09:47:16;96660.34;;;19.42;66.90
56142;BME280;42018;48.588;10.836;2022-09-09T09:50:02;96665.69;;;19.80;67.15
56142;BME280;42018;48.588;10.836;2022-09-09T09:52:59;96669.56;;;19.92;66.82
56142;BME280;42018;48.588;10.836;2022-09-09T09:55:56;96656.38;;;19.78;66.85
56142;BME280;42018;48.588;10.836;2022-09-09T10:01:32;96649.91;;;20.21;64.54
56142;BME280;42018;48.588;10.836;2022-09-09T10:04:22;96647.84;;;20.39;64.34
56142;BME280;42018;48.588;10.836;2022-09-09T10:07:22;96649.41;;;20.06;63.79
56142;BME280;42018;48.588;10.836;2022-09-09T10:10:21;96663.09;;;19.93;63.79
56142;BME280;42018;48.588;10.836;2022-09-09T10:19:15;96649.97;;;19.91;64.30
56142;BME280;42018;48.588;10.836;2022-09-09T10:22:09;96651.06;;;20.32;64.76
56142;BME280;42018;48.588;10.836;2022-09-09T10:37:45;96641.34;;;20.73;61.89
56142;BME280;42018;48.588;10.836;2022-09-09T10:47:14;96639.38;;;20.82;61.71
56142;BME280;42018;48.588;10.836;2022-09-09T10:56:16;96629.97;;;21.00;60.33
56142;BME280;42018;48.588;10.836;2022-09-09T10:59:13;96633.44;;;20.89;61.09
56142;BME280;42018;48.588;10.836;2022-09-09T11:02:18;96641.06;;;20.87;60.89
56142;BME280;42018;48.588;10.836;2022-09-09T11:05:18;96628.06;;;20.89;59.59
56142;BME280;42018;48.588;10.836;2022-09-09T11:08:10;96625.56;;;20.84;59.66
56142;BME280;42018;48.588;10.836;2022-09-09T11:19:26;96627.72;;;21.15;59.89
56142;BME280;42018;48.588;10.836;2022-09-09T11:31:21;96620.09;;;20.92;57.71
56142;BME280;42018;48.588;10.836;2022-09-09T11:40:30;96616.50;;;21.25;59.02
56142;BME280;42018;48.588;10.836;2022-09-09T11:43:45;96605.97;;;21.44;58.16
56142;BME280;42018;48.588;10.836;2022-09-09T11:46:34;96591.59;;;21.52;55.98
56142;BME280;42018;48.588;10.836;2022-09-09T11:49:46;96600.78;;;21.51;56.87
56142;BME280;42018;48.588;10.836;2022-09-09T11:52:42;96600.09;;;21.55;56.06
56142;BME280;42018;48.588;10.836;2022-09-09T11:55:34;96601.00;;;21.59;56.00
56142;BME280;42018;48.588;10.836;2022-09-09T11:58:22;96594.25;;;21.65;53.94
56142;BME280;42018;48.588;10.836;2022-09-09T12:04:16;96597.28;;;22.04;53.80
56142;BME280;42018;48.588;10.836;2022-09-09T12:10:33;96597.38;;;22.79;51.23
56142;BME280;42018;48.588;10.836;2022-09-09T12:13:21;96591.47;;;22.89;51.06
56142;BME280;42018;48.588;10.836;2022-09-09T12:16:28;96578.56;;;22.83;51.42
56142;BME280;42018;48.588;10.836;2022-09-09T12:19:21;96587.22;;;23.20;53.91
56142;BME280;42018;48.588;10.836;2022-09-09T12:25:18;96584.59;;;22.32;50.07
56142;BME280;42018;48.588;10.836;2022-09-09T12:28:20;96579.06;;;22.57;47.79
56142;BME280;42018;48.588;10.836;2022-09-09T12:37:17;96570.19;;;23.35;47.38
56142;BME280;42018;48.588;10.836;2022-09-09T12:40:25;96563.81;;;23.63;49.45
56142;BME280;42018;48.588;10.836;2022-09-09T12:43:20;96573.81;;;23.43;50.50
56142;BME280;42018;48.588;10.836;2022-09-09T12:46:08;96570.56;;;23.18;51.28
56142;BME280;42018;48.588;10.836;2022-09-09T12:48:59;96568.22;;;23.16;51.95
56142;BME280;42018;48.588;10.836;2022-09-09T12:51:45;96567.34;;;23.48;50.58
56142;BME280;42018;48.588;10.836;2022-09-09T12:54:32;96554.66;;;23.68;52.17
56142;BME280;42018;48.588;10.836;2022-09-09T12:57:18;96573.56;;;23.48;52.21
56142;BME280;42018;48.588;10.836;2022-09-09T13:00:14;96558.00;;;22.78;50.65
56142;BME280;42018;48.588;10.836;2022-09-09T13:03:02;96552.16;;;23.24;52.57
56142;BME280;42018;48.588;10.836;2022-09-09T13:06:12;96544.38;;;23.38;50.91
56142;BME280;42018;48.588;10.836;2022-09-09T13:08:59;96534.72;;;22.89;50.11
56142;BME280;42018;48.588;10.836;2022-09-09T13:11:50;96541.88;;;22.98;50.29
56142;BME280;42018;48.588;10.836;2022-09-09T13:14:38;96535.09;;;23.20;50.02
56142;BME280;42018;48.588;10.836;2022-09-09T13:17:25;96538.00;;;22.95;50.14
56142;BME280;42018;48.588;10.836;2022-09-09T13:20:18;96531.69;;;22.59;50.27
56142;BME280;42018;48.588;10.836;2022-09-09T13:23:04;96534.97;;;22.21;50.22
56142;BME280;42018;48.588;10.836;2022-09-09T13:26:05;96541.31;;;22.29;50.17
56142;BME280;42018;48.588;10.836;2022-09-09T13:28:54;96531.94;;;22.38;49.70
56142;BME280;42018;48.588;10.836;2022-09-09T13:31:41;96536.53;;;22.22;49.82
56142;BME280;42018;48.588;10.836;2022-09-09T13:34:32;96537.69;;;22.09;49.77
56142;BME280;42018;48.588;10.836;2022-09-09T13:37:44;96527.56;;;22.34;53.71
56142;BME280;42018;48.588;10.836;2022-09-09T13:40:29;96527.41;;;22.42;52.52
56142;BME280;42018;48.588;10.836;2022-09-09T13:43:21;96527.22;;;22.35;53.83
56142;BME280;42018;48.588;10.836;2022-09-09T13:46:24;96518.13;;;22.56;54.20
56142;BME280;42018;48.588;10.836;2022-09-09T13:54:51;96508.75;;;23.16;56.38
56142;BME280;42018;48.588;10.836;2022-09-09T13:57:36;96500.44;;;23.25;53.95
56142;BME280;42018;48.588;10.836;2022-09-09T14:00:23;96512.53;;;22.64;54.38
56142;BME280;42018;48.588;10.836;2022-09-09T14:03:11;96521.09;;;21.94;57.37
56142;BME280;42018;48.588;10.836;2022-09-09T14:05:57;96520.69;;;21.92;58.60
56142;BME280;42018;48.588;10.836;2022-09-09T14:08:43;96508.81;;;21.81;59.14
56142;BME280;42018;48.588;10.836;2022-09-09T14:11:29;96506.53;;;21.55;59.08
56142;BME280;42018;48.588;10.836;2022-09-09T14:14:15;96512.53;;;21.36;59.76
56142;BME280;42018;48.588;10.836;2022-09-09T14:17:00;96521.94;;;21.30;60.29
56142;BME280;42018;48.588;10.836;2022-09-09T14:19:45;96537.44;;;21.33;62.43
56142;BME280;42018;48.588;10.836;2022-09-09T14:22:31;96548.03;;;21.38;63.49
56142;BME280;42018;48.588;10.836;2022-09-09T14:25:16;96541.84;;;20.76;63.87
56142;BME280;42018;48.588;10.836;2022-09-09T14:28:02;96522.44;;;20.59;62.75
56142;BME280;42018;48.588;10.836;2022-09-09T14:30:47;96519.91;;;20.41;64.74
56142;BME280;42018;48.588;10.836;2022-09-09T14:33:33;96516.66;;;20.02;65.41
56142;BME280;42018;48.588;10.836;2022-09-09T14:36:19;96520.13;;;19.70;65.43
56142;BME280;42018;48.588;10.836;2022-09-09T14:39:05;96530.56;;;19.71;64.95
56142;BME280;42018;48.588;10.836;2022-09-09T14:41:50;96522.28;;;19.55;65.26
56142;BME280;42018;48.588;10.836;2022-09-09T14:44:36;96532.59;;;19.74;64.80
56142;BME280;42018;48.588;10.836;2022-09-09T14:47:22;96528.38;;;20.19;64.60
56142;BME280;42018;48.588;10.836;2022-09-09T14:50:08;96528.72;;;20.50;63.60
56142;BME280;42018;48.588;10.836;2022-09-09T14:52:53;96530.63;;;20.62;63.43
56142;BME280;42018;48.588;10.836;2022-09-09T14:55:38;96525.25;;;20.74;62.57
56142;BME280;42018;48.588;10.836;2022-09-09T14:58:24;96523.00;;;20.64;60.96
56142;BME280;42018;48.588;10.836;2022-09-09T15:01:15;96528.47;;;20.55;61.04
56142;BME280;42018;48.588;10.836;2022-09-09T15:04:03;96533.00;;;20.30;61.00
56142;BME280;42018;48.588;10.836;2022-09-09T15:06:49;96531.84;;;20.19;60.61
56142;BME280;42018;48.588;10.836;2022-09-09T15:09:37;96532.41;;;20.13;59.87
56142;BME280;42018;48.588;10.836;2022-09-09T15:12:23;96534.13;;;20.17;60.13
56142;BME280;42018;48.588;10.836;2022-09-09T15:15:09;96524.31;;;20.13;60.36
56142;BME280;42018;48.588;10.836;2022-09-09T15:17:54;96523.25;;;20.26;59.56
56142;BME280;42018;48.588;10.836;2022-09-09T15:20:44;96522.75;;;19.99;59.65
56142;BME280;42018;48.588;10.836;2022-09-09T15:23:32;96533.16;;;19.59;59.47
56142;BME280;42018;48.588;10.836;2022-09-09T15:26:18;96536.59;;;19.68;59.49
56142;BME280;42018;48.588;10.836;2022-09-09T15:29:03;96539.72;;;19.49;60.73
56142;BME280;42018;48.588;10.836;2022-09-09T15:31:49;96533.50;;;19.36;60.94
56142;BME280;42018;48.588;10.836;2022-09-09T15:34:34;96530.28;;;19.43;59.91
56142;BME280;42018;48.588;10.836;2022-09-09T15:37:20;96530.28;;;19.43;60.01
56142;BME280;42018;48.588;10.836;2022-09-09T15:40:05;96527.59;;;19.43;60.97
56142;BME280;42018;48.588;10.836;2022-09-09T15:42:51;96517.09;;;19.08;62.87
56142;BME280;42018;48.588;10.836;2022-09-09T15:45:37;96528.56;;;19.18;62.31
56142;BME280;42018;48.588;10.836;2022-09-09T15:48:30;96511.81;;;18.91;62.03
56142;BME280;42018;48.588;10.836;2022-09-09T15:51:17;96518.22;;;18.99;62.40
56142;BME280;42018;48.588;10.836;2022-09-09T15:54:04;96520.88;;;19.07;61.52
56142;BME280;42018;48.588;10.836;2022-09-09T15:56:59;96531.16;;;19.05;62.05
56142;BME280;42018;48.588;10.836;2022-09-09T15:59:44;96524.66;;;19.06;61.97
56142;BME280;42018;48.588;10.836;2022-09-09T16:02:30;96524.00;;;19.09;61.78
56142;BME280;42018;48.588;10.836;2022-09-09T16:05:15;96524.81;;;19.10;61.84
56142;BME280;42018;48.588;10.836;2022-09-09T16:08:01;96528.19;;;18.98;62.92
56142;BME280;42018;48.588;10.836;2022-09-09T16:10:46;96520.84;;;18.86;64.04
56142;BME280;42018;48.588;10.836;2022-09-09T16:13:33;96525.97;;;19.00;64.46
56142;BME280;42018;48.588;10.836;2022-09-09T16:16:22;96533.69;;;19.02;65.71
56142;BME280;42018;48.588;10.836;2022-09-09T16:19:09;96537.09;;;18.90;66.67
56142;BME280;42018;48.588;10.836;2022-09-09T16:21:55;96533.66;;;18.81;67.10
56142;BME280;42018;48.588;10.836;2022-09-09T16:24:41;96536.16;;;18.86;67.28
56142;BME280;42018;48.588;10.836;2022-09-09T16:27:26;96532.59;;;18.64;66.75
56142;BME280;42018;48.588;10.836;2022-09-09T16:30:12;96533.50;;;18.77;67.60
56142;BME280;42018;48.588;10.836;2022-09-09T16:32:57;96539.34;;;18.79;65.73
56142;BME280;42018;48.588;10.836;2022-09-09T16:35:43;96540.13;;;18.80;65.91
56142;BME280;42018;48.588;10.836;2022-09-09T16:38:28;96540.22;;;18.54;64.63
56142;BME280;42018;48.588;10.836;2022-09-09T16:41:15;96544.31;;;18.51;65.04
56142;BME280;42018;48.588;10.836;2022-09-09T16:44:11;96546.16;;;18.68;65.69
56142;BME280;42018;48.588;10.836;2022-09-09T16:46:57;96541.25;;;18.79;65.25
56142;BME280;42018;48.588;10.836;2022-09-09T16:49:42;96535.75;;;18.75;64.97
56142;BME280;42018;48.588;10.836;2022-09-09T16:52:28;96530.66;;;18.82;65.15